Pagrindinis puslapis
METAR-TAF:

METAR-TAF

Oro uostai :

Odensė, Danija

platuma: 55-29N, ilguma: 010-20E, Aukštis: 17 m

Dabartinis oras

Ataskaita buvo paskelbta 12 valandos ir 13 minutes, ne 16:50 UTC
Vėjas 5 kt iš Pietų
Temperatūra 1°C
Drėgmė 100%
Slėgis 997 hPa
Matomumas 10 km arba daugiau
Mažai debesys ne aukštis 3000 ft

METAR: EKOD 271650Z 19005KT 9999 FEW030 01/01 Q0997 R06/190095

Laikas: 06:03 (05:03 UTC)

Prognozė

Ataskaita buvo paskelbta 17 valandos ir 10 minutes, ne 11:53 UTC
Prognozė galioja nuo 27 metu 12 UTC su 27 metu 16 UTC
Vėjas 8 kt iš Vakarų/Pietvakarių
Matomumas 10 km arba daugiau
Išsisklaidę debesys ne aukštis 2500 ft
Laikinai
nuo 27 metu 12 UTC su 27 metu 16 UTC
Matomumas: 4000 m
Su prošvaistėmis ne aukštis 1200 ft
Išsisklaidę debesys ne aukštis 2000 ft, Liūtiniai kamuoliniai debesys.
lietus, sniegas

TAF: EKOD 271153Z 2712/2716 24008KT 9999 SCT025 TEMPO 2712/2716 4000 SHRASN BKN012 SCT020CB

Orai ataskaitas ir orų prognozės (METAR, TAF).

turimą stotys yra geltonos ir raudonos taškus žemėlapyje.

Perkelti pele per norėdami pamatyti stoties vardą.

Tada spustelėkite, norėdami matyti oro stebėjimo ir prognozės.

Norėdami pakeisti žemėlapį: spustelėkite ant žalios mygtukų su juodo kryžiaus žemyn,; žalią mygtuką su brūkšneliu, jei norite nutolinti; arba žalių rodyklių gretimoms žemėlapius.


METAR-TAF: